Time;durP1;ratioP1;P1;durP2;ratioP2;P2;SDS_P1;SDS_P2;PMS_P1;PMS_P2;Temp;Humidity;BMP_temperature;BMP_pressure;BME280_temperature;BME280_humidity;BME280_pressure;Samples;Min_cycle;Max_cycle;Signal;HPM_P1;HPM_P2
2022/05/19 00:02:38;;;;;;;14.30;6.70;;;;;;;11.39;44.96;100147.70;233220;1220;139117;-60
2022/05/19 00:07:44;;;;;;;17.90;7.90;;;;;;;11.31;45.27;100138.96;233243;1220;139651;-60
2022/05/19 00:13:02;;;;;;;12.60;7.00;;;;;;;11.25;45.09;100139.80;233005;1220;141793;-61
2022/05/19 00:18:23;;;;;;;12.70;6.20;;;;;;;11.19;45.35;100142.95;232942;1220;138728;-60
2022/05/19 00:23:42;;;;;;;11.90;5.90;;;;;;;11.09;45.62;100140.02;232117;1220;139366;-62
2022/05/19 00:28:58;;;;;;;15.00;6.40;;;;;;;11.02;45.55;100138.55;233176;1220;138994;-62
2022/05/19 00:34:04;;;;;;;13.90;6.00;;;;;;;10.96;45.85;100137.98;233047;1223;138559;-62
2022/05/19 00:39:10;;;;;;;13.80;6.20;;;;;;;10.90;46.02;100141.96;233142;1222;138536;-62
2022/05/19 00:44:20;;;;;;;13.70;6.10;;;;;;;10.81;45.96;100147.52;233293;1220;138655;-61
2022/05/19 00:49:36;;;;;;;11.90;6.20;;;;;;;10.74;46.10;100147.31;233434;1220;138783;-61
2022/05/19 00:54:45;;;;;;;15.00;5.40;;;;;;;10.64;46.24;100147.55;233081;1221;138551;-61
2022/05/19 01:00:00;;;;;;;11.70;5.00;;;;;;;10.57;46.41;100147.71;233102;1221;138522;-62
2022/05/19 01:05:38;;;;;;;12.50;5.50;;;;;;;10.48;46.28;100145.82;232990;1220;138123;-61
2022/05/19 01:11:24;;;;;;;13.30;5.30;;;;;;;10.38;46.57;100144.27;233239;1220;138307;-61
2022/05/19 01:16:26;;;;;;;13.10;5.00;;;;;;;10.34;46.62;100147.82;233269;1220;138330;-60
2022/05/19 01:21:32;;;;;;;12.70;5.20;;;;;;;10.31;46.73;100146.38;232842;1220;139755;-62
2022/05/19 01:26:55;;;;;;;13.30;5.40;;;;;;;10.25;46.81;100152.45;233757;1220;138640;-62
2022/05/19 01:32:05;;;;;;;13.30;5.80;;;;;;;10.18;47.02;100150.61;231819;1220;139189;-62
2022/05/19 01:37:31;;;;;;;11.90;6.20;;;;;;;10.08;46.98;100155.30;230772;1222;139295;-62
2022/05/19 01:43:51;;;;;;;13.50;6.10;;;;;;;9.98;47.02;100150.22;233092;1220;138778;-62
2022/05/19 01:49:55;;;;;;;9.90;5.20;;;;;;;9.88;47.16;100145.29;233312;1220;138653;-62
2022/05/19 01:55:19;;;;;;;12.50;5.20;;;;;;;9.80;47.26;100142.83;233013;1221;138862;-63
2022/05/19 02:00:32;;;;;;;9.70;5.20;;;;;;;9.68;47.37;100141.14;233090;1220;138551;-61
2022/05/19 02:06:29;;;;;;;11.90;5.50;;;;;;;9.59;47.53;100143.85;233103;1220;138366;-60
2022/05/19 02:11:54;;;;;;;10.90;5.20;;;;;;;9.52;47.91;100141.81;233294;1220;138584;-61
2022/05/19 02:17:14;;;;;;;10.30;5.20;;;;;;;9.51;48.03;100136.54;233257;1220;139245;-60
2022/05/19 02:22:28;;;;;;;11.80;5.10;;;;;;;9.49;48.19;100136.10;233143;1220;138337;-60
2022/05/19 02:27:42;;;;;;;13.70;5.50;;;;;;;9.46;48.19;100132.10;233290;1218;138746;-59
2022/05/19 02:32:51;;;;;;;24.50;5.60;;;;;;;9.42;48.18;100139.02;233267;1220;138336;-61
2022/05/19 02:38:04;;;;;;;17.50;5.60;;;;;;;9.38;48.48;100144.46;233275;1220;138085;-61
2022/05/19 02:43:21;;;;;;;12.80;4.90;;;;;;;9.36;48.63;100149.34;233016;1222;139460;-61
2022/05/19 02:48:34;;;;;;;11.50;5.10;;;;;;;9.33;48.65;100144.17;233179;1220;138459;-60
2022/05/19 02:53:41;;;;;;;17.30;5.60;;;;;;;9.27;48.69;100141.38;233005;1221;138525;-61
2022/05/19 02:58:48;;;;;;;17.10;6.20;;;;;;;9.22;48.87;100140.68;233123;1220;138474;-61
2022/05/19 03:03:53;;;;;;;18.40;6.00;;;;;;;9.21;48.91;100140.02;233371;1220;138845;-59
2022/05/19 03:09:16;;;;;;;;;;;;;;;;;;;;;
2022/05/19 03:14:39;;;;;;;11.70;5.00;;;;;;;9.10;49.11;100137.77;233181;1220;137971;-60
2022/05/19 03:20:09;;;;;;;10.90;5.40;;;;;;;9.09;49.29;100133.38;233518;1220;138545;-60
2022/05/19 03:25:33;;;;;;;16.60;5.70;;;;;;;9.04;49.37;100135.92;232749;1222;138832;-60
2022/05/19 03:30:44;;;;;;;17.60;5.70;;;;;;;8.98;49.52;100140.70;232856;1222;138003;-60
2022/05/19 03:36:06;;;;;;;18.50;5.80;;;;;;;8.98;49.66;100140.02;233093;1221;138247;-61
2022/05/19 03:41:22;;;;;;;16.00;5.20;;;;;;;9.04;49.95;100138.40;233014;1221;138220;-62
2022/05/19 03:46:41;;;;;;;12.40;5.00;;;;;;;9.14;49.92;100142.04;233057;1222;139171;-60
2022/05/19 03:52:01;;;;;;;14.20;5.60;;;;;;;9.27;50.20;100142.98;232904;1222;138343;-61
2022/05/19 03:57:16;;;;;;;10.70;4.60;;;;;;;9.41;50.26;100146.70;233245;1221;138558;-60
2022/05/19 04:02:31;;;;;;;10.10;5.80;;;;;;;9.53;50.23;100144.41;233151;1221;138251;-62
2022/05/19 04:07:44;;;;;;;54.60;48.20;;;;;;;9.63;50.19;100143.48;233137;1220;138808;-60
2022/05/19 04:13:07;;;;;;;20.00;11.20;;;;;;;9.80;50.29;100142.45;233134;1219;138716;-60
2022/05/19 04:18:12;;;;;;;30.90;19.30;;;;;;;10.01;50.26;100145.11;232989;1220;138792;-61
2022/05/19 04:23:21;;;;;;;13.70;7.50;;;;;;;10.21;50.17;100147.29;233062;1221;139259;-61
2022/05/19 04:28:29;;;;;;;14.30;6.50;;;;;;;10.34;49.69;100148.34;232974;1222;139607;-63
2022/05/19 04:33:35;;;;;;;52.30;31.20;;;;;;;10.46;49.65;100147.48;233101;1222;138922;-61
2022/05/19 04:38:45;;;;;;;17.10;10.20;;;;;;;10.67;49.66;100144.96;233070;1222;139359;-61
2022/05/19 04:44:22;;;;;;;11.00;5.10;;;;;;;10.90;49.40;100147.64;232743;1221;139540;-64
2022/05/19 04:49:34;;;;;;;57.60;45.60;;;;;;;11.07;49.10;100144.55;232997;1221;140647;-63
2022/05/19 04:54:41;;;;;;;13.20;6.20;;;;;;;11.26;49.05;100144.04;233234;1221;139121;-63
2022/05/19 04:59:52;;;;;;;9.90;4.00;;;;;;;11.40;48.82;100143.55;233312;1222;138192;-62
2022/05/19 05:05:09;;;;;;;7.80;4.50;;;;;;;11.48;48.95;100139.60;232953;1222;139086;-63
2022/05/19 05:10:28;;;;;;;13.20;5.20;;;;;;;11.62;49.09;100143.21;232724;1220;139031;-62
2022/05/19 05:15:45;;;;;;;13.20;4.80;;;;;;;11.74;48.59;100137.96;232880;1220;139150;-63
2022/05/19 05:21:13;;;;;;;10.80;4.40;;;;;;;11.93;49.17;100137.42;233188;1222;140642;-63
2022/05/19 05:26:21;;;;;;;10.60;4.30;;;;;;;12.12;48.86;100129.00;233070;1222;139213;-61
2022/05/19 05:31:25;;;;;;;12.00;5.20;;;;;;;12.34;48.87;100121.27;233046;1221;139956;-61
2022/05/19 05:36:48;;;;;;;23.30;12.60;;;;;;;12.71;49.76;100120.73;233078;1220;139048;-63
2022/05/19 05:41:54;;;;;;;19.80;10.40;;;;;;;13.51;50.64;100122.23;233131;1221;139355;-63
2022/05/19 05:47:05;;;;;;;13.90;7.70;;;;;;;14.00;49.43;100120.88;232788;1222;140225;-62
2022/05/19 05:52:19;;;;;;;104.70;67.40;;;;;;;14.56;48.68;100123.60;233161;1220;138818;-63
2022/05/19 05:57:30;;;;;;;15.30;9.30;;;;;;;14.87;47.10;100117.80;233214;1220;139036;-62
2022/05/19 06:02:35;;;;;;;28.70;6.80;;;;;;;15.11;46.87;100113.35;233210;1222;138608;-61
2022/05/19 06:07:49;;;;;;;70.40;46.60;;;;;;;15.46;46.41;100113.85;233120;1221;139044;-62
2022/05/19 06:12:57;;;;;;;27.30;7.00;;;;;;;15.49;44.70;100107.90;233332;1221;139175;-64
2022/05/19 06:18:02;;;;;;;22.60;6.30;;;;;;;15.39;43.78;100111.97;233436;1220;139755;-63
2022/05/19 06:23:08;;;;;;;17.80;5.30;;;;;;;15.56;44.50;100114.95;233288;1220;139056;-63
2022/05/19 06:28:20;;;;;;;21.60;4.90;;;;;;;15.59;43.55;100114.96;233201;1220;139390;-63
2022/05/19 06:33:37;;;;;;;9.50;3.90;;;;;;;15.58;42.89;100119.61;233211;1221;138892;-62
2022/05/19 06:38:44;;;;;;;14.60;4.00;;;;;;;15.56;42.30;100117.46;233187;1220;140104;-62
2022/05/19 06:43:55;;;;;;;60.00;40.00;;;;;;;15.55;42.38;100113.73;233392;1220;138768;-63
2022/05/19 06:49:04;;;;;;;11.50;4.50;;;;;;;15.67;42.00;100105.89;233231;1221;139899;-62
2022/05/19 06:54:26;;;;;;;8.70;3.70;;;;;;;15.81;41.68;100105.42;233039;1220;138607;-63
2022/05/19 06:59:41;;;;;;;8.60;3.60;;;;;;;15.97;41.75;100105.27;233264;1221;139355;-64
2022/05/19 07:05:16;;;;;;;17.00;4.80;;;;;;;16.08;41.40;100097.70;233214;1221;138446;-64
2022/05/19 07:10:37;;;;;;;24.90;5.90;;;;;;;16.25;41.23;100097.98;232536;1220;138517;-63
2022/05/19 07:15:55;;;;;;;17.60;4.70;;;;;;;16.38;41.02;100092.30;233033;1222;138542;-63
2022/05/19 07:21:20;;;;;;;11.10;3.70;;;;;;;16.56;40.65;100093.68;233332;1221;138546;-62
2022/05/19 07:26:36;;;;;;;8.50;3.20;;;;;;;16.69;40.02;100087.40;233148;1220;143060;-60
2022/05/19 07:31:46;;;;;;;9.80;2.90;;;;;;;16.87;39.86;100088.16;233288;1220;139468;-61
2022/05/19 07:36:59;;;;;;;11.00;2.60;;;;;;;17.02;39.26;100091.73;233203;1221;138546;-60
2022/05/19 07:42:14;;;;;;;15.70;3.80;;;;;;;17.18;38.68;100092.36;233139;1220;138888;-64
2022/05/19 07:47:31;;;;;;;9.60;3.10;;;;;;;17.33;38.53;100089.16;233133;1221;138555;-64
2022/05/19 07:53:03;;;;;;;10.80;2.50;;;;;;;17.51;38.18;100084.24;233166;1221;139848;-65
2022/05/19 07:58:30;;;;;;;5.40;2.20;;;;;;;17.73;37.78;100081.17;233147;1220;138906;-65
2022/05/19 08:03:43;;;;;;;7.30;2.00;;;;;;;17.91;37.50;100079.65;232417;1220;138690;-65
2022/05/19 08:08:51;;;;;;;4.30;2.00;;;;;;;18.08;37.14;100073.10;233328;1222;139865;-63
2022/05/19 08:19:31;;;;;;;6.80;1.80;;;;;;;18.40;36.70;100059.63;232440;1218;138652;-60
2022/05/19 08:24:51;;;;;;;4.10;1.60;;;;;;;18.56;36.02;100062.75;232505;1221;139154;-62
2022/05/19 08:30:20;;;;;;;5.50;1.60;;;;;;;18.68;35.64;100057.82;233177;1221;138420;-62
2022/05/19 08:35:47;;;;;;;3.20;1.40;;;;;;;18.81;34.96;100060.42;233228;1219;138277;-63
2022/05/19 08:41:39;;;;;;;4.90;1.50;;;;;;;18.94;34.41;100056.70;233371;1220;138259;-65
2022/05/19 08:47:14;;;;;;;5.20;1.30;;;;;;;19.09;34.19;100044.52;233302;1220;139280;-63
2022/05/19 08:52:22;;;;;;;6.90;1.80;;;;;;;19.27;33.94;100041.59;233230;1220;138729;-63
2022/05/19 08:58:04;;;;;;;7.00;2.60;;;;;;;19.45;33.96;100040.61;233275;1220;138362;-61
2022/05/19 09:03:32;;;;;;;8.20;1.70;;;;;;;19.68;33.60;100040.94;233426;1220;138488;-61
2022/05/19 09:09:07;;;;;;;4.90;1.40;;;;;;;19.84;32.67;100042.79;233448;1220;138739;-62
2022/05/19 09:14:31;;;;;;;5.50;1.50;;;;;;;19.97;31.97;100039.56;233156;1220;208630;-62
2022/05/19 09:19:38;;;;;;;10.80;2.00;;;;;;;20.07;31.94;100031.50;233231;1221;138508;-62
2022/05/19 09:24:50;;;;;;;5.50;2.10;;;;;;;20.26;31.75;100032.19;233236;1220;139308;-62
2022/05/19 09:30:03;;;;;;;7.80;2.50;;;;;;;20.44;31.41;100035.84;233366;1220;139783;-60
2022/05/19 09:35:42;;;;;;;3.70;1.90;;;;;;;20.63;31.44;100021.27;233148;1220;138909;-63
2022/05/19 09:40:54;;;;;;;7.60;1.80;;;;;;;20.84;31.38;100014.13;232850;1220;138498;-62
2022/05/19 09:46:14;;;;;;;5.00;1.50;;;;;;;20.98;30.89;100016.65;233361;1220;138933;-65
2022/05/19 09:51:21;;;;;;;7.10;1.80;;;;;;;21.16;30.58;100004.64;233317;1220;138424;-62
2022/05/19 09:56:39;;;;;;;5.50;1.70;;;;;;;21.31;30.23;99994.41;233284;1221;138504;-63
2022/05/19 10:02:22;;;;;;;6.50;1.80;;;;;;;21.54;30.18;99990.33;233227;1220;138840;-62
2022/05/19 10:07:44;;;;;;;2.40;1.50;;;;;;;21.76;30.00;99985.02;233087;1220;138720;-62
2022/05/19 10:13:06;;;;;;;3.60;1.60;;;;;;;22.06;29.79;99985.77;233128;1221;139296;-63
2022/05/19 10:19:01;;;;;;;5.00;1.40;;;;;;;22.34;29.36;99971.02;233106;1220;139806;-62
2022/05/19 10:24:37;;;;;;;3.60;1.50;;;;;;;22.56;29.19;99965.88;233120;1220;138661;-63
2022/05/19 10:36:14;;;;;;;5.70;1.70;;;;;;;23.11;28.94;99949.95;233179;1220;140010;-62
2022/05/19 10:41:50;;;;;;;7.70;2.00;;;;;;;23.43;29.09;99949.97;233404;1221;138361;-62
2022/05/19 10:47:50;;;;;;;7.80;1.70;;;;;;;23.75;28.87;99940.19;233069;1220;138303;-62
2022/05/19 10:54:08;;;;;;;8.60;1.70;;;;;;;23.98;28.34;99931.89;233005;1220;138279;-63
2022/05/19 10:59:34;;;;;;;6.40;1.60;;;;;;;24.15;28.13;99918.83;232727;1220;139487;-61
2022/05/19 11:05:13;;;;;;;151.90;115.20;;;;;;;24.35;27.70;99916.96;231613;1220;139119;-62
2022/05/19 11:10:56;;;;;;;;;;;;;;;;;;;;;
2022/05/19 11:16:17;;;;;;;9.20;4.70;;;;;;;24.71;28.14;99912.23;233274;1220;139377;-63
2022/05/19 11:21:34;;;;;;;11.50;2.80;;;;;;;24.89;27.92;99903.15;233390;1220;138468;-61
2022/05/19 11:27:04;;;;;;;6.60;2.50;;;;;;;25.07;27.37;99899.59;233095;1221;140304;-62
2022/05/19 11:32:19;;;;;;;12.00;5.10;;;;;;;25.25;27.63;99892.02;231709;1221;138704;-61
2022/05/19 11:43:09;;;;;;;4.80;1.90;;;;;;;25.58;27.74;99879.86;232955;1221;139611;-61
2022/05/19 12:00:12;;;;;;;6.30;2.00;;;;;;;26.07;26.03;99846.08;232993;1221;138633;-58
2022/05/19 12:05:51;;;;;;;6.60;2.00;;;;;;;26.28;25.96;99834.45;233088;1220;138705;-58
2022/05/19 12:11:30;;;;;;;3.80;1.60;;;;;;;26.40;25.83;99826.65;233074;1221;138774;-58
2022/05/19 12:16:48;;;;;;;5.90;1.90;;;;;;;26.58;25.61;99825.35;233098;1220;138881;-59
2022/05/19 12:22:07;;;;;;;4.70;1.70;;;;;;;26.68;25.54;99811.20;233306;1220;138822;-59
2022/05/19 12:27:23;;;;;;;43.70;35.10;;;;;;;26.90;25.33;99802.61;233375;1220;138103;-60
2022/05/19 12:32:39;;;;;;;6.70;4.00;;;;;;;27.08;24.90;99804.43;232875;1221;139683;-59
2022/05/19 12:38:06;;;;;;;5.50;2.10;;;;;;;27.18;24.76;99801.69;233294;1220;138554;-59
2022/05/19 12:43:42;;;;;;;4.00;1.80;;;;;;;27.35;24.73;99796.55;233490;1220;139194;-59
2022/05/19 12:49:19;;;;;;;6.30;1.70;;;;;;;27.51;24.39;99791.21;233949;1220;138724;-60
2022/05/19 12:54:30;;;;;;;4.30;1.70;;;;;;;27.60;24.36;99782.10;233946;1220;138214;-59
2022/05/19 13:00:01;;;;;;;3.30;1.40;;;;;;;27.80;23.73;99784.02;233879;1219;137897;-60
2022/05/19 13:05:18;;;;;;;8.80;1.60;;;;;;;27.96;23.57;99780.88;233833;1220;138238;-61
2022/05/19 13:10:46;;;;;;;4.30;1.70;;;;;;;28.17;23.34;99772.27;233656;1220;138309;-60
2022/05/19 13:16:02;;;;;;;3.20;1.60;;;;;;;28.34;22.96;99763.80;234011;1220;138356;-60
2022/05/19 13:21:20;;;;;;;24.80;18.80;;;;;;;28.44;22.69;99765.52;233823;1220;138199;-61
2022/05/19 13:32:34;;;;;;;6.50;2.70;;;;;;;28.64;22.65;99755.23;233301;1220;138903;-59
2022/05/19 13:37:46;;;;;;;4.60;1.90;;;;;;;28.83;22.46;99747.46;233353;1220;138247;-59
2022/05/19 13:43:07;;;;;;;6.00;1.90;;;;;;;28.96;22.40;99747.97;233110;1220;139001;-60
2022/05/19 13:48:42;;;;;;;9.00;1.50;;;;;;;29.14;22.22;99726.44;233278;1220;138008;-59
2022/05/19 13:53:56;;;;;;;8.00;1.60;;;;;;;29.31;21.51;99721.68;233589;1220;138364;-60
2022/05/19 13:59:07;;;;;;;4.90;1.50;;;;;;;29.39;21.38;99719.52;233330;1220;138361;-59
2022/05/19 14:04:27;;;;;;;4.60;1.80;;;;;;;29.42;21.27;99714.36;233163;1221;139032;-59
2022/05/19 14:09:46;;;;;;;6.30;1.60;;;;;;;29.45;21.24;99712.89;233216;1221;137997;-60
2022/05/19 14:15:06;;;;;;;3.10;1.50;;;;;;;29.50;21.49;99710.83;233360;1220;138645;-60
2022/05/19 14:20:31;;;;;;;4.40;1.70;;;;;;;29.50;21.45;99696.10;233362;1220;138600;-60
2022/05/19 14:25:42;;;;;;;4.70;1.80;;;;;;;29.46;21.16;99689.02;233160;1220;139459;-60
2022/05/19 14:31:31;;;;;;;7.50;1.90;;;;;;;29.29;21.16;99694.45;233091;1220;138417;-59
2022/05/19 14:37:21;;;;;;;5.60;1.50;;;;;;;29.05;21.12;99689.38;233212;1220;138884;-60
2022/05/19 14:48:45;;;;;;;4.40;1.70;;;;;;;28.53;21.36;99669.08;233153;1221;138493;-59
2022/05/19 14:54:01;;;;;;;8.70;1.60;;;;;;;28.20;20.97;99666.82;233203;1220;138812;-59
2022/05/19 14:59:51;;;;;;;5.00;2.10;;;;;;;27.90;21.14;99655.75;233326;1220;138868;-60
2022/05/19 15:05:14;;;;;;;3.20;1.50;;;;;;;27.64;21.17;99651.30;233360;1220;138206;-62
2022/05/19 15:10:31;;;;;;;3.60;1.90;;;;;;;27.47;21.08;99652.88;233384;1220;137998;-60
2022/05/19 15:15:41;;;;;;;2.50;1.30;;;;;;;27.32;21.48;99647.32;233279;1221;138201;-60
2022/05/19 15:21:00;;;;;;;2.90;1.70;;;;;;;27.21;21.32;99640.05;233005;1220;139030;-61
2022/05/19 15:26:35;;;;;;;5.70;1.40;;;;;;;27.10;21.41;99635.23;233263;1220;138457;-61
2022/05/19 15:32:39;;;;;;;2.80;1.60;;;;;;;27.00;21.55;99634.07;233042;1221;138333;-59
2022/05/19 15:37:59;;;;;;;4.10;1.60;;;;;;;26.87;21.71;99629.64;232850;1222;138221;-61
2022/05/19 15:43:12;;;;;;;3.60;1.50;;;;;;;26.76;21.78;99626.38;232948;1222;138281;-61
2022/05/19 15:48:31;;;;;;;6.00;1.40;;;;;;;26.63;21.67;99626.38;233249;1220;139877;-61
2022/05/19 15:53:43;;;;;;;4.40;1.90;;;;;;;26.53;21.94;99613.27;233165;1220;138420;-62
2022/05/19 15:59:15;;;;;;;3.40;2.20;;;;;;;26.39;21.96;99607.11;233418;1220;139887;-62
2022/05/19 16:04:28;;;;;;;4.20;1.20;;;;;;;26.30;21.90;99601.88;233365;1220;138798;-62
2022/05/19 16:09:35;;;;;;;4.90;1.60;;;;;;;26.21;21.95;99588.96;233287;1218;139041;-62
2022/05/19 16:15:19;;;;;;;;;;;;;;;26.19;22.07;99589.34;233259;1220;138591;-62
2022/05/19 16:20:24;;;;;;;8.80;1.90;;;;;;;26.07;22.18;99592.19;233350;1220;124706;-62
2022/05/19 16:25:35;;;;;;;4.50;1.60;;;;;;;26.00;22.08;99587.02;233159;1220;138575;-62
2022/05/19 16:30:43;;;;;;;4.10;1.50;;;;;;;25.96;21.97;99578.76;233114;1221;138887;-62
2022/05/19 16:36:12;;;;;;;3.90;1.50;;;;;;;25.93;22.17;99573.25;233188;1220;139002;-61
2022/05/19 16:41:22;;;;;;;4.90;1.90;;;;;;;25.89;22.43;99566.52;233208;1220;138706;-62
2022/05/19 16:46:30;;;;;;;4.90;1.90;;;;;;;25.86;22.68;99570.55;233177;1220;138162;-62
2022/05/19 16:51:38;;;;;;;6.70;2.10;;;;;;;25.79;22.83;99564.83;233187;1221;140965;-62
2022/05/19 17:02:23;;;;;;;6.00;2.50;;;;;;;25.61;22.72;99559.22;233220;1220;137936;-62
2022/05/19 17:07:39;;;;;;;3.80;2.10;;;;;;;25.53;22.93;99555.96;233132;1220;138551;-62
2022/05/19 17:12:57;;;;;;;6.30;1.80;;;;;;;25.41;22.96;99557.21;233319;1220;138120;-63
2022/05/19 17:18:10;;;;;;;4.60;1.80;;;;;;;25.30;23.10;99560.64;233587;1220;138455;-63
2022/05/19 17:23:24;;;;;;;4.40;1.90;;;;;;;25.19;23.13;99562.05;233285;1219;138370;-63
2022/05/19 17:28:38;;;;;;;6.00;1.90;;;;;;;25.13;23.39;99560.55;233107;1219;139797;-61
2022/05/19 17:33:55;;;;;;;6.70;1.90;;;;;;;25.15;23.58;99564.91;233223;1221;138086;-62
2022/05/19 17:39:05;;;;;;;5.10;1.80;;;;;;;25.16;23.48;99565.31;233126;1220;138790;-63
2022/05/19 17:44:28;;;;;;;5.30;1.80;;;;;;;25.12;23.51;99557.94;233245;1220;139181;-65
2022/05/19 17:49:48;;;;;;;6.40;2.30;;;;;;;25.09;23.65;99553.13;232998;1221;138184;-63
2022/05/19 17:55:04;;;;;;;10.40;2.50;;;;;;;25.07;23.79;99550.21;232717;1220;138331;-63
2022/05/19 18:00:19;;;;;;;13.50;5.70;;;;;;;24.99;23.92;99544.73;233215;1220;139209;-64
2022/05/19 18:05:31;;;;;;;111.30;86.20;;;;;;;24.92;24.05;99542.44;233150;1220;138512;-63
2022/05/19 18:10:43;;;;;;;64.00;44.50;;;;;;;24.84;24.60;99546.70;233352;1219;138662;-63
2022/05/19 18:21:29;;;;;;;14.50;6.20;;;;;;;24.48;25.61;99544.51;232907;1222;138907;-63
2022/05/19 18:26:39;;;;;;;12.30;4.80;;;;;;;24.31;25.92;99547.14;232841;1221;138541;-63
2022/05/19 18:31:43;;;;;;;18.40;3.90;;;;;;;24.15;26.54;99540.77;232951;1221;141449;-63
2022/05/19 18:36:50;;;;;;;20.40;4.20;;;;;;;23.97;26.77;99540.20;233072;1220;138355;-62
2022/05/19 18:47:39;;;;;;;14.90;4.70;;;;;;;23.52;28.03;99549.64;230645;1220;138789;-63
2022/05/19 18:52:46;;;;;;;20.30;5.80;;;;;;;23.32;28.33;99544.76;231934;1221;138355;-62
2022/05/19 18:58:03;;;;;;;16.20;5.40;;;;;;;23.13;28.70;99545.13;233064;1221;139729;-63
2022/05/19 19:03:23;;;;;;;306.30;236.10;;;;;;;22.93;29.10;99550.29;231123;1219;138505;-64
2022/05/19 19:08:50;;;;;;;44.00;22.30;;;;;;;22.79;29.67;99552.52;231500;1220;138732;-64
2022/05/19 19:13:58;;;;;;;23.10;6.40;;;;;;;22.63;29.85;99548.19;233009;1221;138742;-65
2022/05/19 19:19:14;;;;;;;23.60;5.90;;;;;;;22.45;30.13;99549.92;233372;1220;138307;-66
2022/05/19 19:24:21;;;;;;;20.50;6.20;;;;;;;22.25;30.57;99551.27;232395;1221;138292;-64
2022/05/19 19:29:32;;;;;;;47.30;34.10;;;;;;;22.05;30.98;99551.44;230646;1220;139950;-64
2022/05/19 19:34:41;;;;;;;23.50;10.10;;;;;;;21.90;31.48;99553.52;230630;1221;138857;-64
2022/05/19 19:39:51;;;;;;;19.50;6.80;;;;;;;21.72;31.92;99558.01;231615;1220;140059;-64
2022/05/19 19:45:04;;;;;;;24.10;8.50;;;;;;;21.53;32.03;99557.71;233183;1220;138742;-64
2022/05/19 19:55:49;;;;;;;26.50;14.30;;;;;;;21.35;32.86;99557.03;233097;1220;139018;-65
2022/05/19 20:01:08;;;;;;;14.80;4.90;;;;;;;21.34;33.14;99566.07;233286;1220;139357;-65
2022/05/19 20:06:21;;;;;;;14.60;5.00;;;;;;;21.26;33.34;99565.64;232994;1220;139191;-64
2022/05/19 20:11:35;;;;;;;14.80;7.10;;;;;;;21.11;33.38;99565.82;233173;1220;138292;-64
2022/05/19 20:16:42;;;;;;;19.60;7.00;;;;;;;20.96;33.66;99561.70;233434;1220;138315;-64
2022/05/19 20:21:49;;;;;;;18.70;6.30;;;;;;;20.86;33.76;99565.55;233063;1221;138628;-65
2022/05/19 20:26:59;;;;;;;45.00;34.50;;;;;;;20.91;33.27;99569.60;233070;1221;138670;-64
2022/05/19 20:32:08;;;;;;;43.10;27.50;;;;;;;21.06;32.98;99565.75;233265;1220;138945;-64
2022/05/19 20:37:32;;;;;;;17.70;4.70;;;;;;;21.16;33.35;99556.64;233439;1220;138797;-65
2022/05/19 20:42:49;;;;;;;19.20;5.40;;;;;;;21.13;33.45;99558.26;233163;1220;138850;-65
2022/05/19 20:48:06;;;;;;;21.40;6.50;;;;;;;21.00;34.19;99556.41;233456;1220;139113;-65
2022/05/19 20:53:12;;;;;;;26.90;7.10;;;;;;;20.78;34.82;99552.61;233423;1220;138813;-66
2022/05/19 20:58:19;;;;;;;23.00;6.60;;;;;;;20.54;35.44;99554.35;233319;1220;139007;-66
2022/05/19 21:03:28;;;;;;;22.80;7.80;;;;;;;20.31;36.07;99556.16;233280;1220;138466;-65
2022/05/19 21:08:40;;;;;;;17.70;6.00;;;;;;;20.08;36.61;99567.87;233273;1221;138440;-65
2022/05/19 21:13:56;;;;;;;16.90;4.90;;;;;;;19.95;36.67;99571.39;233288;1220;139090;-66
2022/05/19 21:19:42;;;;;;;19.20;6.60;;;;;;;19.99;36.34;99571.59;233347;1220;139306;-65
2022/05/19 21:30:35;;;;;;;22.20;6.30;;;;;;;19.86;37.41;99566.49;233333;1221;138644;-66
2022/05/19 21:35:57;;;;;;;34.40;7.20;;;;;;;19.66;37.89;99563.81;233156;1222;138609;-66
2022/05/19 21:41:14;;;;;;;33.80;6.90;;;;;;;19.43;38.22;99558.46;233265;1221;141775;-66
2022/05/19 21:46:19;;;;;;;31.40;6.60;;;;;;;19.20;38.71;99557.69;233405;1221;141311;-66
2022/05/19 21:57:54;;;;;;;26.40;6.20;;;;;;;18.87;39.17;99557.04;233279;1221;139346;-66
2022/05/19 22:03:08;;;;;;;15.80;5.80;;;;;;;18.74;39.21;99554.96;232466;1221;138835;-67
2022/05/19 22:08:16;;;;;;;27.50;6.10;;;;;;;18.67;39.10;99560.17;230794;1221;138754;-65
2022/05/19 22:13:20;;;;;;;22.00;6.10;;;;;;;18.63;39.32;99563.02;230851;1222;138339;-64
2022/05/19 22:18:38;;;;;;;19.20;6.30;;;;;;;18.54;39.48;99561.85;230838;1221;138883;-64
2022/05/19 22:24:02;;;;;;;23.80;6.10;;;;;;;18.43;39.63;99558.83;230902;1220;139555;-65
2022/05/19 22:29:14;;;;;;;12.60;6.10;;;;;;;18.29;40.04;99558.13;230893;1221;138892;-66
2022/05/19 22:34:39;;;;;;;22.50;5.80;;;;;;;18.14;40.25;99560.63;232638;1221;138760;-67
2022/05/19 22:39:52;;;;;;;24.90;6.90;;;;;;;17.97;40.45;99563.10;233299;1221;139426;-66
2022/05/19 22:45:01;;;;;;;23.30;6.30;;;;;;;17.86;40.84;99561.91;233115;1222;139001;-67
2022/05/19 22:50:18;;;;;;;22.40;7.20;;;;;;;17.70;41.31;99554.93;232625;1222;139105;-67
2022/05/19 22:55:37;;;;;;;21.60;7.30;;;;;;;17.58;41.73;99563.33;232828;1222;139084;-67
2022/05/19 23:01:06;;;;;;;26.30;8.10;;;;;;;17.44;42.07;99554.56;233018;1222;139400;-66
2022/05/19 23:06:21;;;;;;;21.00;7.40;;;;;;;17.34;42.69;99553.23;233276;1221;139322;-67
2022/05/19 23:11:30;;;;;;;20.80;7.50;;;;;;;17.21;43.11;99544.62;232994;1221;140279;-67
2022/05/19 23:16:53;;;;;;;22.50;8.20;;;;;;;17.11;43.50;99543.67;233078;1221;139267;-67
2022/05/19 23:22:09;;;;;;;24.00;8.40;;;;;;;17.00;43.84;99538.95;233154;1221;138912;-66
2022/05/19 23:27:20;;;;;;;26.80;9.20;;;;;;;16.86;44.03;99531.14;233137;1221;138822;-67
2022/05/19 23:38:06;;;;;;;29.40;9.00;;;;;;;16.62;44.82;99515.08;232729;1222;139604;-66
2022/05/19 23:43:21;;;;;;;23.20;8.90;;;;;;;16.53;44.92;99516.02;233098;1222;139042;-66
2022/05/19 23:48:30;;;;;;;22.90;9.40;;;;;;;16.43;45.08;99514.13;232776;1222;139145;-65
2022/05/19 23:53:39;;;;;;;18.90;7.50;;;;;;;16.33;45.45;99514.35;232840;1222;138890;-65
2022/05/19 23:58:48;;;;;;;16.40;7.50;;;;;;;16.24;45.54;99513.30;232978;1222;138324;-66
